CES6292 ZYJM-ZSPD
Flight info
| Callsign | CES6292 |
|---|---|
| Flight time | 3h 6m |
| Altitude | 32100 |
| Route | HRB09D HRB A588 BIDIB A345 DDG 394859N1235930E BIGBU 380233N1234958E DONVO A326 IKADI W113 SOSMA W108 MATNU W115 PINOT |
| Aircraft | A20N/M-SDE2E3FGHIJ1J3J4J5RWY/LB1 |
Departure
| Time | 2026-05-04 16:50 |
|---|---|
| Airport | Jiamusi Songjiang International Airport (ZYJM) |
Arrival
| Time | 2026-05-04 19:57 |
|---|---|
| Airport | Shanghai Pudong International Airport (ZSPD) |
| Time | Latitude | Longitude | Altitude | Speed | Heading |
|---|---|---|---|---|---|
| 2026-05-04 16:29 | 46.84378 | 130.45757 | 270 ft | 0 kts | 317° |
| 2026-05-04 16:44 | 46.84232 | 130.45668 | 270 ft | 15 kts | 143° |
| 2026-05-04 16:45 | 46.84021 | 130.45942 | 271 ft | 11 kts | 139° |
| 2026-05-04 16:46 | 46.83849 | 130.45728 | 275 ft | 17 kts | 227° |
| 2026-05-04 16:46 | 46.83672 | 130.45407 | 270 ft | 10 kts | 258° |
| 2026-05-04 16:47 | 46.83635 | 130.45390 | 270 ft | 11 kts | 28° |
| 2026-05-04 16:47 | 46.83702 | 130.45493 | 271 ft | 0 kts | 47° |
| 2026-05-04 16:49 | 46.83758 | 130.45583 | 272 ft | 43 kts | 49° |
| 2026-05-04 16:50 | 46.84843 | 130.47369 | 431 ft | 166 kts | 50° |
| 2026-05-04 16:50 | 46.86692 | 130.49755 | 1510 ft | 206 kts | 20° |
| 2026-05-04 16:51 | 46.89401 | 130.48644 | 2684 ft | 213 kts | 303° |
| 2026-05-04 16:51 | 46.89918 | 130.46733 | 3532 ft | 198 kts | 271° |
| 2026-05-04 16:51 | 46.90008 | 130.42840 | 5003 ft | 193 kts | 272° |
| 2026-05-04 16:52 | 46.90482 | 130.38587 | 5716 ft | 228 kts | 270° |
| 2026-05-04 16:52 | 46.90265 | 130.36454 | 6026 ft | 237 kts | 248° |
| 2026-05-04 16:53 | 46.88391 | 130.32379 | 6950 ft | 244 kts | 237° |
| 2026-05-04 16:53 | 46.85411 | 130.26276 | 8412 ft | 248 kts | 238° |
| 2026-05-04 16:54 | 46.84411 | 130.24213 | 8895 ft | 249 kts | 238° |
| 2026-05-04 16:55 | 46.80345 | 130.15847 | 10598 ft | 256 kts | 239° |
| 2026-05-04 16:55 | 46.78261 | 130.11575 | 11362 ft | 260 kts | 239° |
| 2026-05-04 16:56 | 46.76146 | 130.07242 | 12090 ft | 264 kts | 240° |
| 2026-05-04 16:56 | 46.72912 | 130.00640 | 13153 ft | 269 kts | 241° |
| 2026-05-04 16:57 | 46.71820 | 129.98413 | 13481 ft | 271 kts | 241° |
| 2026-05-04 16:57 | 46.69602 | 129.93893 | 14878 ft | 276 kts | 242° |
| 2026-05-04 16:58 | 46.66730 | 129.86228 | 16722 ft | 291 kts | 254° |
| 2026-05-04 16:58 | 46.65991 | 129.83508 | 17374 ft | 295 kts | 254° |
| 2026-05-04 16:59 | 46.64448 | 129.77869 | 18589 ft | 304 kts | 254° |
| 2026-05-04 17:00 | 46.61247 | 129.66207 | 20878 ft | 317 kts | 254° |
| 2026-05-04 17:00 | 46.58744 | 129.57138 | 22549 ft | 327 kts | 254° |
| 2026-05-04 17:01 | 46.57031 | 129.50941 | 23561 ft | 333 kts | 255° |
| 2026-05-04 17:01 | 46.55292 | 129.44680 | 24543 ft | 335 kts | 255° |
| 2026-05-04 17:02 | 46.53536 | 129.38373 | 25494 ft | 338 kts | 255° |
| 2026-05-04 17:02 | 46.51763 | 129.32016 | 26405 ft | 341 kts | 255° |
| 2026-05-04 17:03 | 46.50871 | 129.28820 | 26816 ft | 343 kts | 255° |
| 2026-05-04 17:03 | 46.49972 | 129.25607 | 27259 ft | 344 kts | 255° |
| 2026-05-04 17:03 | 46.48161 | 129.19152 | 28108 ft | 347 kts | 255° |
| 2026-05-04 17:04 | 46.46332 | 129.12646 | 28876 ft | 350 kts | 255° |
| 2026-05-04 17:04 | 46.44486 | 129.06085 | 29484 ft | 356 kts | 255° |
| 2026-05-04 17:05 | 46.42609 | 128.99461 | 30204 ft | 356 kts | 254° |
| 2026-05-04 17:05 | 46.40718 | 128.92800 | 30876 ft | 357 kts | 255° |
| 2026-05-04 17:06 | 46.38828 | 128.86154 | 31598 ft | 357 kts | 255° |
| 2026-05-04 17:06 | 46.37881 | 128.82829 | 31951 ft | 356 kts | 255° |
| 2026-05-04 17:07 | 46.35976 | 128.76131 | 32098 ft | 370 kts | 254° |
| 2026-05-04 17:07 | 46.35308 | 128.73786 | 32087 ft | 376 kts | 254° |
| 2026-05-04 17:07 | 46.33966 | 128.69089 | 32086 ft | 387 kts | 254° |
| 2026-05-04 17:07 | 46.32923 | 128.65451 | 32086 ft | 395 kts | 253° |
| 2026-05-04 17:08 | 46.29754 | 128.54470 | 32078 ft | 394 kts | 253° |
| 2026-05-04 17:09 | 46.27643 | 128.47167 | 32076 ft | 393 kts | 253° |
| 2026-05-04 17:09 | 46.25529 | 128.39867 | 32067 ft | 394 kts | 253° |
| 2026-05-04 17:10 | 46.20215 | 128.21610 | 32053 ft | 393 kts | 253° |
| 2026-05-04 17:11 | 46.18099 | 128.14382 | 32042 ft | 394 kts | 252° |
| 2026-05-04 17:12 | 46.14896 | 128.03476 | 32036 ft | 394 kts | 252° |
| 2026-05-04 17:13 | 46.09525 | 127.85303 | 32022 ft | 395 kts | 252° |
| 2026-05-04 17:14 | 46.05197 | 127.70756 | 32011 ft | 395 kts | 252° |
| 2026-05-04 17:15 | 46.01937 | 127.59852 | 32002 ft | 396 kts | 252° |
| 2026-05-04 17:16 | 45.97572 | 127.45323 | 31998 ft | 396 kts | 252° |
| 2026-05-04 17:17 | 45.93335 | 127.30806 | 31990 ft | 395 kts | 253° |
| 2026-05-04 17:18 | 45.89164 | 127.16234 | 31984 ft | 395 kts | 253° |
| 2026-05-04 17:19 | 45.85066 | 127.02063 | 31985 ft | 395 kts | 253° |
| 2026-05-04 17:20 | 45.80964 | 126.87959 | 31981 ft | 395 kts | 252° |
| 2026-05-04 17:20 | 45.78377 | 126.79121 | 31976 ft | 396 kts | 252° |
| 2026-05-04 17:21 | 45.74307 | 126.65248 | 31981 ft | 396 kts | 252° |
| 2026-05-04 17:22 | 45.72475 | 126.59018 | 31974 ft | 396 kts | 255° |
| 2026-05-04 17:23 | 45.68309 | 126.45048 | 31974 ft | 397 kts | 252° |
| 2026-05-04 17:24 | 45.65343 | 126.35091 | 31967 ft | 399 kts | 249° |
| 2026-05-04 17:24 | 45.59650 | 126.26471 | 31970 ft | 430 kts | 216° |
| 2026-05-04 17:25 | 45.57036 | 126.24891 | 31971 ft | 442 kts | 204° |
| 2026-05-04 17:26 | 45.45218 | 126.22069 | 31973 ft | 451 kts | 196° |
| 2026-05-04 17:27 | 45.29725 | 126.18566 | 32003 ft | 451 kts | 196° |
| 2026-05-04 17:28 | 45.17308 | 126.15773 | 32032 ft | 452 kts | 196° |
| 2026-05-04 17:29 | 44.98647 | 126.11607 | 32051 ft | 453 kts | 196° |
| 2026-05-04 17:31 | 44.83311 | 126.08198 | 32067 ft | 454 kts | 196° |
| 2026-05-04 17:32 | 44.71261 | 126.05537 | 32080 ft | 455 kts | 196° |
| 2026-05-04 17:33 | 44.61140 | 126.03305 | 32089 ft | 456 kts | 196° |
| 2026-05-04 17:35 | 44.51887 | 126.01276 | 32097 ft | 457 kts | 195° |
| 2026-05-04 17:36 | 44.46801 | 126.00171 | 32103 ft | 458 kts | 195° |
| 2026-05-04 17:36 | 44.42417 | 125.99209 | 32107 ft | 458 kts | 196° |
| 2026-05-04 17:37 | 44.36596 | 125.97925 | 32093 ft | 458 kts | 196° |
| 2026-05-04 17:37 | 44.30736 | 125.96636 | 32100 ft | 459 kts | 196° |
| 2026-05-04 17:38 | 44.24420 | 125.95248 | 32112 ft | 459 kts | 196° |
| 2026-05-04 17:38 | 44.18104 | 125.93865 | 32124 ft | 460 kts | 195° |
| 2026-05-04 17:39 | 44.08609 | 125.91795 | 32132 ft | 461 kts | 195° |
| 2026-05-04 17:39 | 44.02275 | 125.90418 | 32134 ft | 461 kts | 195° |
| 2026-05-04 17:40 | 43.95929 | 125.89041 | 32137 ft | 462 kts | 195° |
| 2026-05-04 17:40 | 43.89568 | 125.87693 | 32139 ft | 463 kts | 195° |
| 2026-05-04 17:41 | 43.83202 | 125.86380 | 32140 ft | 463 kts | 195° |
| 2026-05-04 17:41 | 43.76960 | 125.84499 | 32149 ft | 454 kts | 206° |
| 2026-05-04 17:42 | 43.71307 | 125.80892 | 32152 ft | 445 kts | 215° |
| 2026-05-04 17:42 | 43.65807 | 125.76929 | 32164 ft | 446 kts | 214° |
| 2026-05-04 17:43 | 43.60292 | 125.72992 | 32168 ft | 446 kts | 214° |
| 2026-05-04 17:43 | 43.54769 | 125.69063 | 32177 ft | 447 kts | 214° |
| 2026-05-04 17:44 | 43.49241 | 125.65138 | 32180 ft | 447 kts | 214° |
| 2026-05-04 17:44 | 43.43705 | 125.61216 | 32190 ft | 447 kts | 214° |
| 2026-05-04 17:45 | 43.38173 | 125.57304 | 32192 ft | 447 kts | 214° |
| 2026-05-04 17:45 | 43.32627 | 125.53390 | 32198 ft | 448 kts | 214° |
| 2026-05-04 17:46 | 43.27077 | 125.49483 | 32206 ft | 449 kts | 214° |
| 2026-05-04 17:46 | 43.21516 | 125.45574 | 32217 ft | 449 kts | 214° |
| 2026-05-04 17:47 | 43.15954 | 125.41673 | 32223 ft | 449 kts | 214° |
| 2026-05-04 17:47 | 43.10425 | 125.37804 | 32227 ft | 450 kts | 213° |
| 2026-05-04 17:48 | 43.04849 | 125.33911 | 32233 ft | 450 kts | 213° |
| 2026-05-04 17:48 | 42.99269 | 125.30022 | 32243 ft | 450 kts | 213° |
| 2026-05-04 17:49 | 42.93692 | 125.26143 | 32239 ft | 450 kts | 213° |
| 2026-05-04 17:49 | 42.88110 | 125.22269 | 32243 ft | 450 kts | 213° |
| 2026-05-04 17:50 | 42.82528 | 125.18401 | 32254 ft | 450 kts | 213° |
| 2026-05-04 17:50 | 42.76957 | 125.14502 | 32258 ft | 450 kts | 214° |
| 2026-05-04 17:51 | 42.71401 | 125.10589 | 32262 ft | 450 kts | 213° |
| 2026-05-04 17:51 | 42.65844 | 125.06692 | 32271 ft | 449 kts | 213° |
| 2026-05-04 17:52 | 42.60285 | 125.02806 | 32278 ft | 450 kts | 213° |
| 2026-05-04 17:52 | 42.54716 | 124.98921 | 32282 ft | 450 kts | 213° |
| 2026-05-04 17:53 | 42.49143 | 124.95041 | 32294 ft | 451 kts | 213° |
| 2026-05-04 17:53 | 42.43564 | 124.91164 | 32290 ft | 451 kts | 213° |
| 2026-05-04 17:54 | 42.37983 | 124.87295 | 32296 ft | 450 kts | 213° |
| 2026-05-04 17:54 | 42.32400 | 124.83431 | 32309 ft | 451 kts | 213° |
| 2026-05-04 17:55 | 42.26815 | 124.79574 | 32315 ft | 451 kts | 212° |
| 2026-05-04 17:55 | 42.21230 | 124.75724 | 32318 ft | 451 kts | 212° |
| 2026-05-04 17:56 | 42.15640 | 124.71880 | 32324 ft | 451 kts | 212° |
| 2026-05-04 17:56 | 42.10090 | 124.68070 | 32332 ft | 451 kts | 212° |
| 2026-05-04 17:57 | 42.04495 | 124.64236 | 32337 ft | 451 kts | 212° |
| 2026-05-04 17:57 | 41.98898 | 124.60409 | 32348 ft | 451 kts | 212° |
| 2026-05-04 17:58 | 41.93394 | 124.56400 | 32350 ft | 449 kts | 215° |
| 2026-05-04 17:58 | 41.87997 | 124.52186 | 32351 ft | 450 kts | 215° |
| 2026-05-04 17:59 | 41.82573 | 124.48012 | 32357 ft | 449 kts | 215° |
| 2026-05-04 18:00 | 41.74408 | 124.41798 | 32364 ft | 450 kts | 214° |
| 2026-05-04 18:00 | 41.68960 | 124.37666 | 32370 ft | 450 kts | 214° |
| 2026-05-04 18:01 | 41.63516 | 124.33546 | 32371 ft | 450 kts | 214° |
| 2026-05-04 18:01 | 41.58068 | 124.29429 | 32240 ft | 449 kts | 214° |
| 2026-05-04 18:02 | 41.52633 | 124.25331 | 32127 ft | 449 kts | 214° |
| 2026-05-04 18:02 | 41.49908 | 124.23278 | 32128 ft | 449 kts | 214° |
| 2026-05-04 18:02 | 41.44454 | 124.19185 | 32127 ft | 454 kts | 212° |
| 2026-05-04 18:03 | 41.41494 | 124.17553 | 32136 ft | 469 kts | 200° |
| 2026-05-04 18:03 | 41.38243 | 124.16716 | 32135 ft | 483 kts | 188° |
| 2026-05-04 18:03 | 41.31403 | 124.17022 | 32201 ft | 497 kts | 179° |
| 2026-05-04 18:04 | 41.27956 | 124.17347 | 32344 ft | 497 kts | 179° |
| 2026-05-04 18:04 | 41.24510 | 124.17666 | 32442 ft | 493 kts | 179° |
| 2026-05-04 18:04 | 41.17887 | 124.18260 | 32248 ft | 462 kts | 180° |
| 2026-05-04 18:05 | 41.14699 | 124.18533 | 32256 ft | 461 kts | 180° |
| 2026-05-04 18:05 | 41.08263 | 124.19067 | 32261 ft | 467 kts | 180° |
| 2026-05-04 18:06 | 40.98517 | 124.20033 | 32275 ft | 466 kts | 178° |
| 2026-05-04 18:06 | 40.92064 | 124.20824 | 32276 ft | 465 kts | 178° |
| 2026-05-04 18:07 | 40.85618 | 124.21587 | 32281 ft | 465 kts | 178° |
| 2026-05-04 18:07 | 40.79177 | 124.22332 | 32283 ft | 464 kts | 178° |
| 2026-05-04 18:08 | 40.72785 | 124.23071 | 32282 ft | 464 kts | 178° |
| 2026-05-04 18:08 | 40.66353 | 124.23812 | 32286 ft | 463 kts | 178° |
| 2026-05-04 18:09 | 40.53511 | 124.25290 | 32286 ft | 463 kts | 178° |
| 2026-05-04 18:10 | 40.47101 | 124.26026 | 32285 ft | 462 kts | 178° |
| 2026-05-04 18:10 | 40.40694 | 124.26760 | 32289 ft | 462 kts | 178° |
| 2026-05-04 18:11 | 40.34293 | 124.27492 | 32287 ft | 462 kts | 178° |
| 2026-05-04 18:11 | 40.27888 | 124.28068 | 32284 ft | 459 kts | 184° |
| 2026-05-04 18:12 | 40.21615 | 124.26978 | 32283 ft | 453 kts | 198° |
| 2026-05-04 18:12 | 40.15553 | 124.24723 | 32283 ft | 453 kts | 199° |
| 2026-05-04 18:13 | 40.09494 | 124.22494 | 32279 ft | 452 kts | 199° |
| 2026-05-04 18:14 | 40.00404 | 124.19171 | 32271 ft | 452 kts | 199° |
| 2026-05-04 18:14 | 39.94342 | 124.16961 | 32271 ft | 452 kts | 198° |
| 2026-05-04 18:15 | 39.83249 | 124.12925 | 32262 ft | 452 kts | 198° |
| 2026-05-04 18:16 | 39.76213 | 124.10373 | 32257 ft | 452 kts | 198° |
| 2026-05-04 18:16 | 39.70159 | 124.08181 | 32257 ft | 452 kts | 198° |
| 2026-05-04 18:17 | 39.61076 | 124.04901 | 32251 ft | 451 kts | 198° |
| 2026-05-04 18:17 | 39.55065 | 124.02737 | 32539 ft | 446 kts | 198° |
| 2026-05-04 18:18 | 39.52059 | 124.01655 | 32568 ft | 452 kts | 198° |
| 2026-05-04 18:18 | 39.46002 | 123.99478 | 32409 ft | 450 kts | 198° |
| 2026-05-04 18:18 | 39.43999 | 123.98760 | 32291 ft | 450 kts | 198° |
| 2026-05-04 18:19 | 39.37921 | 123.96581 | 32188 ft | 451 kts | 198° |
| 2026-05-04 18:19 | 39.31919 | 123.94433 | 32191 ft | 450 kts | 198° |
| 2026-05-04 18:20 | 39.25876 | 123.92274 | 32188 ft | 450 kts | 198° |
| 2026-05-04 18:20 | 39.19843 | 123.90123 | 32200 ft | 450 kts | 198° |
| 2026-05-04 18:21 | 39.13802 | 123.87972 | 32199 ft | 450 kts | 198° |
| 2026-05-04 18:21 | 39.07776 | 123.85831 | 32200 ft | 450 kts | 198° |
| 2026-05-04 18:22 | 39.01719 | 123.83681 | 32204 ft | 455 kts | 198° |
| 2026-05-04 18:22 | 38.95611 | 123.81518 | 32209 ft | 455 kts | 198° |
| 2026-05-04 18:23 | 38.89508 | 123.79359 | 32204 ft | 455 kts | 198° |
| 2026-05-04 18:23 | 38.83411 | 123.77205 | 32216 ft | 455 kts | 198° |
| 2026-05-04 18:24 | 38.77312 | 123.75057 | 32205 ft | 455 kts | 198° |
| 2026-05-04 18:24 | 38.71209 | 123.72912 | 32214 ft | 455 kts | 198° |
| 2026-05-04 18:25 | 38.65104 | 123.70771 | 32215 ft | 455 kts | 198° |
| 2026-05-04 18:25 | 38.58998 | 123.68632 | 32214 ft | 455 kts | 198° |
| 2026-05-04 18:26 | 38.52551 | 123.66377 | 32214 ft | 456 kts | 198° |
| 2026-05-04 18:26 | 38.46474 | 123.64257 | 32219 ft | 456 kts | 198° |
| 2026-05-04 18:27 | 38.40353 | 123.62126 | 32220 ft | 456 kts | 198° |
| 2026-05-04 18:27 | 38.34229 | 123.59993 | 32221 ft | 456 kts | 197° |
| 2026-05-04 18:28 | 38.28063 | 123.57855 | 32225 ft | 457 kts | 197° |
| 2026-05-04 18:28 | 38.21929 | 123.55729 | 32227 ft | 457 kts | 197° |
| 2026-05-04 18:29 | 38.15834 | 123.53618 | 32229 ft | 457 kts | 197° |
| 2026-05-04 18:29 | 38.09694 | 123.51498 | 32231 ft | 458 kts | 197° |
| 2026-05-04 18:30 | 38.00480 | 123.48323 | 32235 ft | 457 kts | 197° |
| 2026-05-04 18:31 | 37.94335 | 123.46210 | 32236 ft | 457 kts | 197° |
| 2026-05-04 18:31 | 37.88194 | 123.44102 | 32240 ft | 458 kts | 197° |
| 2026-05-04 18:32 | 37.82049 | 123.41997 | 32240 ft | 457 kts | 197° |
| 2026-05-04 18:32 | 37.75909 | 123.39898 | 32240 ft | 457 kts | 197° |
| 2026-05-04 18:33 | 37.69767 | 123.37799 | 32242 ft | 457 kts | 197° |
| 2026-05-04 18:33 | 37.63634 | 123.35706 | 32243 ft | 458 kts | 197° |
| 2026-05-04 18:34 | 37.57372 | 123.33817 | 32171 ft | 465 kts | 190° |
| 2026-05-04 18:34 | 37.50897 | 123.33471 | 32121 ft | 467 kts | 180° |
| 2026-05-04 18:35 | 37.44395 | 123.33684 | 32123 ft | 467 kts | 180° |
| 2026-05-04 18:35 | 37.37900 | 123.33872 | 32123 ft | 467 kts | 180° |
| 2026-05-04 18:36 | 37.31402 | 123.34056 | 32130 ft | 467 kts | 180° |
| 2026-05-04 18:36 | 37.24954 | 123.34239 | 32129 ft | 467 kts | 180° |
| 2026-05-04 18:37 | 37.18419 | 123.34425 | 32135 ft | 466 kts | 180° |
| 2026-05-04 18:37 | 37.11931 | 123.34608 | 32134 ft | 466 kts | 180° |
| 2026-05-04 18:38 | 37.05445 | 123.34792 | 32139 ft | 466 kts | 180° |
| 2026-05-04 18:38 | 36.99002 | 123.34973 | 32136 ft | 466 kts | 180° |
| 2026-05-04 18:39 | 36.92521 | 123.35156 | 32138 ft | 466 kts | 180° |
| 2026-05-04 18:39 | 36.86045 | 123.35338 | 32142 ft | 465 kts | 180° |
| 2026-05-04 18:40 | 36.79566 | 123.35519 | 32142 ft | 466 kts | 181° |
| 2026-05-04 18:40 | 36.73160 | 123.35698 | 32147 ft | 465 kts | 181° |
| 2026-05-04 18:41 | 36.66625 | 123.35880 | 32145 ft | 465 kts | 181° |
| 2026-05-04 18:41 | 36.60157 | 123.36059 | 32150 ft | 465 kts | 181° |
| 2026-05-04 18:42 | 36.53694 | 123.36238 | 32148 ft | 464 kts | 181° |
| 2026-05-04 18:42 | 36.47236 | 123.36416 | 32155 ft | 464 kts | 181° |
| 2026-05-04 18:43 | 36.40784 | 123.36594 | 32150 ft | 464 kts | 181° |
| 2026-05-04 18:43 | 36.34335 | 123.36776 | 32152 ft | 464 kts | 181° |
| 2026-05-04 18:44 | 36.27888 | 123.36961 | 32157 ft | 463 kts | 181° |
| 2026-05-04 18:44 | 36.21450 | 123.37144 | 32155 ft | 462 kts | 182° |
| 2026-05-04 18:45 | 36.15019 | 123.37326 | 32160 ft | 462 kts | 182° |
| 2026-05-04 18:45 | 36.08591 | 123.37508 | 32157 ft | 462 kts | 182° |
| 2026-05-04 18:46 | 36.02167 | 123.37690 | 32155 ft | 461 kts | 182° |
| 2026-05-04 18:46 | 35.95747 | 123.37870 | 32158 ft | 461 kts | 182° |
| 2026-05-04 18:47 | 35.89332 | 123.38051 | 32158 ft | 461 kts | 182° |
| 2026-05-04 18:47 | 35.82909 | 123.38231 | 32158 ft | 461 kts | 182° |
| 2026-05-04 18:48 | 35.76491 | 123.38411 | 32160 ft | 461 kts | 182° |
| 2026-05-04 18:48 | 35.70076 | 123.38591 | 32161 ft | 461 kts | 182° |
| 2026-05-04 18:49 | 35.63701 | 123.38768 | 32165 ft | 461 kts | 182° |
| 2026-05-04 18:49 | 35.57244 | 123.38947 | 32162 ft | 461 kts | 182° |
| 2026-05-04 18:50 | 35.51909 | 123.39096 | 32169 ft | 461 kts | 183° |
| 2026-05-04 18:50 | 35.45492 | 123.39274 | 32168 ft | 461 kts | 183° |
| 2026-05-04 18:51 | 35.39072 | 123.39452 | 32167 ft | 461 kts | 183° |
| 2026-05-04 18:51 | 35.32656 | 123.39629 | 32165 ft | 461 kts | 183° |
| 2026-05-04 18:52 | 35.26236 | 123.39807 | 32168 ft | 461 kts | 183° |
| 2026-05-04 18:52 | 35.19812 | 123.39984 | 32167 ft | 461 kts | 183° |
| 2026-05-04 18:53 | 35.13450 | 123.40163 | 32017 ft | 449 kts | 183° |
| 2026-05-04 18:53 | 35.10367 | 123.40252 | 31896 ft | 437 kts | 183° |
| 2026-05-04 18:53 | 35.07377 | 123.40339 | 31765 ft | 423 kts | 184° |
| 2026-05-04 18:53 | 35.04483 | 123.40421 | 31640 ft | 410 kts | 184° |
| 2026-05-04 18:54 | 35.01707 | 123.40499 | 31379 ft | 400 kts | 184° |
| 2026-05-04 18:54 | 34.98896 | 123.40580 | 30891 ft | 398 kts | 183° |
| 2026-05-04 18:54 | 34.96171 | 123.40768 | 30423 ft | 397 kts | 181° |
| 2026-05-04 18:54 | 34.93391 | 123.41029 | 29918 ft | 394 kts | 180° |
| 2026-05-04 18:55 | 34.90710 | 123.41287 | 29400 ft | 391 kts | 180° |
| 2026-05-04 18:55 | 34.85329 | 123.41775 | 28386 ft | 384 kts | 180° |
| 2026-05-04 18:55 | 34.82673 | 123.42004 | 27888 ft | 381 kts | 180° |
| 2026-05-04 18:56 | 34.80034 | 123.42229 | 27403 ft | 379 kts | 180° |
| 2026-05-04 18:56 | 34.77414 | 123.42455 | 26923 ft | 376 kts | 180° |
| 2026-05-04 18:56 | 34.74814 | 123.42680 | 26449 ft | 373 kts | 180° |
| 2026-05-04 18:56 | 34.72230 | 123.42904 | 25990 ft | 371 kts | 180° |
| 2026-05-04 18:57 | 34.69667 | 123.43126 | 25532 ft | 369 kts | 180° |
| 2026-05-04 18:57 | 34.67119 | 123.43346 | 25207 ft | 363 kts | 180° |
| 2026-05-04 18:57 | 34.64607 | 123.43564 | 25092 ft | 363 kts | 180° |
| 2026-05-04 18:57 | 34.62066 | 123.43781 | 25072 ft | 367 kts | 180° |
| 2026-05-04 18:58 | 34.59518 | 123.44000 | 25077 ft | 370 kts | 180° |
| 2026-05-04 18:58 | 34.56890 | 123.44223 | 25075 ft | 388 kts | 180° |
| 2026-05-04 18:58 | 34.54136 | 123.44455 | 25080 ft | 405 kts | 180° |
| 2026-05-04 18:58 | 34.51267 | 123.44700 | 25079 ft | 422 kts | 179° |
| 2026-05-04 18:59 | 34.48283 | 123.44956 | 25077 ft | 438 kts | 179° |
| 2026-05-04 18:59 | 34.45191 | 123.45223 | 25081 ft | 453 kts | 179° |
| 2026-05-04 18:59 | 34.42008 | 123.45498 | 25082 ft | 462 kts | 179° |
| 2026-05-04 18:59 | 34.38802 | 123.45779 | 25077 ft | 462 kts | 179° |
| 2026-05-04 19:00 | 34.35604 | 123.46058 | 25079 ft | 461 kts | 179° |
| 2026-05-04 19:00 | 34.32394 | 123.46336 | 25078 ft | 462 kts | 179° |
| 2026-05-04 19:00 | 34.29191 | 123.46613 | 25076 ft | 462 kts | 179° |
| 2026-05-04 19:00 | 34.25989 | 123.46888 | 25074 ft | 462 kts | 179° |
| 2026-05-04 19:01 | 34.22783 | 123.47164 | 25070 ft | 462 kts | 179° |
| 2026-05-04 19:01 | 34.19588 | 123.47249 | 25082 ft | 458 kts | 188° |
| 2026-05-04 19:01 | 34.16486 | 123.46580 | 25081 ft | 451 kts | 200° |
| 2026-05-04 19:01 | 34.13608 | 123.45148 | 25079 ft | 445 kts | 212° |
| 2026-05-04 19:02 | 34.11076 | 123.43048 | 25079 ft | 440 kts | 224° |
| 2026-05-04 19:02 | 34.08976 | 123.40395 | 25080 ft | 436 kts | 235° |
| 2026-05-04 19:02 | 34.07380 | 123.37317 | 25077 ft | 432 kts | 246° |
| 2026-05-04 19:02 | 34.06333 | 123.33933 | 25078 ft | 430 kts | 257° |
| 2026-05-04 19:03 | 34.05650 | 123.30429 | 25075 ft | 430 kts | 258° |
| 2026-05-04 19:03 | 34.04965 | 123.26918 | 25073 ft | 430 kts | 258° |
| 2026-05-04 19:03 | 34.04286 | 123.23462 | 25073 ft | 429 kts | 257° |
| 2026-05-04 19:03 | 34.03594 | 123.19959 | 25071 ft | 430 kts | 257° |
| 2026-05-04 19:04 | 34.02899 | 123.16453 | 25072 ft | 430 kts | 257° |
| 2026-05-04 19:04 | 34.02205 | 123.12953 | 25069 ft | 429 kts | 257° |
| 2026-05-04 19:04 | 34.01522 | 123.09517 | 25069 ft | 413 kts | 257° |
| 2026-05-04 19:04 | 34.00867 | 123.06230 | 25068 ft | 394 kts | 257° |
| 2026-05-04 19:05 | 34.00241 | 123.03092 | 25069 ft | 375 kts | 257° |
| 2026-05-04 19:05 | 33.99645 | 123.00111 | 25068 ft | 357 kts | 257° |
| 2026-05-04 19:05 | 33.99081 | 122.97288 | 25067 ft | 340 kts | 258° |
| 2026-05-04 19:05 | 33.98521 | 122.94475 | 25069 ft | 350 kts | 258° |
| 2026-05-04 19:06 | 33.97952 | 122.91622 | 25036 ft | 349 kts | 257° |
| 2026-05-04 19:06 | 33.97388 | 122.88807 | 24985 ft | 341 kts | 257° |
| 2026-05-04 19:06 | 33.96838 | 122.86070 | 24822 ft | 333 kts | 258° |
| 2026-05-04 19:06 | 33.96294 | 122.83365 | 24399 ft | 331 kts | 258° |
| 2026-05-04 19:07 | 33.95752 | 122.80671 | 23941 ft | 330 kts | 258° |
| 2026-05-04 19:07 | 33.95212 | 122.77989 | 23473 ft | 329 kts | 258° |
| 2026-05-04 19:07 | 33.94673 | 122.75314 | 22803 ft | 331 kts | 258° |
| 2026-05-04 19:07 | 33.94122 | 122.72580 | 21797 ft | 343 kts | 257° |
| 2026-05-04 19:08 | 33.93548 | 122.69729 | 20857 ft | 357 kts | 257° |
| 2026-05-04 19:08 | 33.92932 | 122.66678 | 20398 ft | 391 kts | 257° |
| 2026-05-04 19:08 | 33.92268 | 122.63398 | 20175 ft | 416 kts | 257° |
| 2026-05-04 19:08 | 33.91563 | 122.59928 | 20069 ft | 436 kts | 257° |
| 2026-05-04 19:09 | 33.90832 | 122.56335 | 20056 ft | 446 kts | 257° |
| 2026-05-04 19:09 | 33.90091 | 122.52708 | 20057 ft | 446 kts | 257° |
| 2026-05-04 19:09 | 33.89351 | 122.49087 | 20053 ft | 446 kts | 257° |
| 2026-05-04 19:09 | 33.88610 | 122.45463 | 20055 ft | 446 kts | 257° |
| 2026-05-04 19:10 | 33.87868 | 122.41837 | 20051 ft | 446 kts | 257° |
| 2026-05-04 19:10 | 33.87125 | 122.38218 | 20053 ft | 446 kts | 257° |
| 2026-05-04 19:10 | 33.86381 | 122.34596 | 20047 ft | 446 kts | 257° |
| 2026-05-04 19:10 | 33.85645 | 122.31017 | 20049 ft | 446 kts | 257° |
| 2026-05-04 19:11 | 33.84891 | 122.27355 | 20050 ft | 446 kts | 257° |
| 2026-05-04 19:11 | 33.84145 | 122.23736 | 20050 ft | 446 kts | 257° |
| 2026-05-04 19:11 | 33.83397 | 122.20115 | 20048 ft | 446 kts | 257° |
| 2026-05-04 19:11 | 33.82658 | 122.16547 | 20046 ft | 446 kts | 257° |
| 2026-05-04 19:12 | 33.81908 | 122.12927 | 20041 ft | 446 kts | 257° |
| 2026-05-04 19:12 | 33.80406 | 122.05700 | 20046 ft | 446 kts | 257° |
| 2026-05-04 19:12 | 33.79652 | 122.02080 | 20043 ft | 446 kts | 257° |
| 2026-05-04 19:13 | 33.78898 | 121.98469 | 20042 ft | 446 kts | 257° |
| 2026-05-04 19:13 | 33.78142 | 121.94853 | 20040 ft | 446 kts | 257° |
| 2026-05-04 19:13 | 33.77385 | 121.91234 | 20041 ft | 446 kts | 257° |
| 2026-05-04 19:13 | 33.76628 | 121.87623 | 20040 ft | 446 kts | 257° |
| 2026-05-04 19:14 | 33.75852 | 121.84011 | 20039 ft | 446 kts | 254° |
| 2026-05-04 19:14 | 33.74638 | 121.80583 | 20037 ft | 449 kts | 242° |
| 2026-05-04 19:14 | 33.73046 | 121.77827 | 20035 ft | 452 kts | 231° |
| 2026-05-04 19:14 | 33.70772 | 121.75215 | 20033 ft | 455 kts | 219° |
| 2026-05-04 19:15 | 33.68081 | 121.73206 | 20030 ft | 458 kts | 208° |
| 2026-05-04 19:15 | 33.65075 | 121.71892 | 20032 ft | 463 kts | 196° |
| 2026-05-04 19:15 | 33.61879 | 121.71353 | 20029 ft | 467 kts | 184° |
| 2026-05-04 19:15 | 33.58627 | 121.71622 | 20029 ft | 471 kts | 172° |
| 2026-05-04 19:16 | 33.55470 | 121.72692 | 20033 ft | 474 kts | 161° |
| 2026-05-04 19:16 | 33.52423 | 121.74173 | 20031 ft | 468 kts | 159° |
| 2026-05-04 19:16 | 33.49490 | 121.75641 | 20030 ft | 445 kts | 159° |
| 2026-05-04 19:16 | 33.46704 | 121.77034 | 20035 ft | 423 kts | 159° |
| 2026-05-04 19:17 | 33.44048 | 121.78350 | 20033 ft | 403 kts | 160° |
| 2026-05-04 19:17 | 33.41518 | 121.79593 | 20035 ft | 384 kts | 160° |
| 2026-05-04 19:17 | 33.39099 | 121.80776 | 19786 ft | 370 kts | 160° |
| 2026-05-04 19:17 | 33.36718 | 121.81932 | 19190 ft | 369 kts | 160° |
| 2026-05-04 19:18 | 33.34343 | 121.83083 | 18725 ft | 367 kts | 160° |
| 2026-05-04 19:18 | 33.31985 | 121.84226 | 18269 ft | 365 kts | 160° |
| 2026-05-04 19:18 | 33.29646 | 121.85362 | 17785 ft | 361 kts | 160° |
| 2026-05-04 19:18 | 33.27324 | 121.86490 | 17310 ft | 358 kts | 160° |
| 2026-05-04 19:19 | 33.25026 | 121.87606 | 16842 ft | 355 kts | 160° |
| 2026-05-04 19:19 | 33.22747 | 121.88711 | 16388 ft | 352 kts | 160° |
| 2026-05-04 19:19 | 33.20482 | 121.89810 | 15932 ft | 350 kts | 160° |
| 2026-05-04 19:19 | 33.18237 | 121.90898 | 15491 ft | 347 kts | 160° |
| 2026-05-04 19:20 | 33.16010 | 121.91977 | 14984 ft | 346 kts | 160° |
| 2026-05-04 19:20 | 33.13759 | 121.93066 | 14249 ft | 353 kts | 160° |
| 2026-05-04 19:20 | 33.11460 | 121.94176 | 13388 ft | 361 kts | 160° |
| 2026-05-04 19:20 | 33.09104 | 121.95313 | 12388 ft | 370 kts | 160° |
| 2026-05-04 19:21 | 33.06693 | 121.96476 | 11574 ft | 375 kts | 159° |
| 2026-05-04 19:21 | 33.04337 | 121.97615 | 11303 ft | 355 kts | 159° |
| 2026-05-04 19:21 | 33.02114 | 121.98691 | 11127 ft | 337 kts | 159° |
| 2026-05-04 19:21 | 32.99987 | 121.99719 | 10990 ft | 323 kts | 159° |
| 2026-05-04 19:22 | 32.97943 | 122.00706 | 10874 ft | 310 kts | 159° |
| 2026-05-04 19:22 | 32.95976 | 122.01654 | 10664 ft | 301 kts | 160° |
| 2026-05-04 19:22 | 32.94039 | 122.02585 | 10293 ft | 299 kts | 160° |
| 2026-05-04 19:22 | 32.92134 | 122.03501 | 10108 ft | 292 kts | 159° |
| 2026-05-04 19:23 | 32.90237 | 122.04412 | 10047 ft | 297 kts | 159° |
| 2026-05-04 19:23 | 32.88355 | 122.05318 | 10036 ft | 285 kts | 159° |
| 2026-05-04 19:23 | 32.86569 | 122.06179 | 10033 ft | 270 kts | 160° |
| 2026-05-04 19:23 | 32.84832 | 122.07014 | 10036 ft | 275 kts | 160° |
| 2026-05-04 19:24 | 32.83040 | 122.07873 | 10040 ft | 278 kts | 160° |
| 2026-05-04 19:24 | 32.81278 | 122.08718 | 10034 ft | 276 kts | 160° |
| 2026-05-04 19:24 | 32.79477 | 122.09584 | 10033 ft | 276 kts | 159° |
| 2026-05-04 19:24 | 32.77723 | 122.10426 | 10037 ft | 276 kts | 159° |
| 2026-05-04 19:25 | 32.75937 | 122.11284 | 10042 ft | 276 kts | 160° |
| 2026-05-04 19:25 | 32.74155 | 122.12139 | 10040 ft | 276 kts | 159° |
| 2026-05-04 19:25 | 32.72378 | 122.12990 | 10038 ft | 276 kts | 160° |
| 2026-05-04 19:25 | 32.70594 | 122.13845 | 10046 ft | 276 kts | 159° |
| 2026-05-04 19:26 | 32.68812 | 122.14699 | 10042 ft | 276 kts | 160° |
| 2026-05-04 19:26 | 32.67031 | 122.15551 | 10038 ft | 276 kts | 159° |
| 2026-05-04 19:26 | 32.65251 | 122.16403 | 10039 ft | 276 kts | 159° |
| 2026-05-04 19:26 | 32.63466 | 122.17257 | 10033 ft | 276 kts | 159° |
| 2026-05-04 19:27 | 32.61685 | 122.18109 | 10042 ft | 276 kts | 159° |
| 2026-05-04 19:27 | 32.59901 | 122.18962 | 10042 ft | 277 kts | 159° |
| 2026-05-04 19:27 | 32.58114 | 122.19816 | 10039 ft | 277 kts | 159° |
| 2026-05-04 19:27 | 32.56330 | 122.20669 | 10041 ft | 276 kts | 159° |
| 2026-05-04 19:28 | 32.54548 | 122.21520 | 10038 ft | 276 kts | 159° |
| 2026-05-04 19:28 | 32.52720 | 122.22391 | 10051 ft | 300 kts | 159° |
| 2026-05-04 19:28 | 32.50670 | 122.23363 | 10037 ft | 330 kts | 159° |
| 2026-05-04 19:28 | 32.48526 | 122.24385 | 10042 ft | 333 kts | 159° |
| 2026-05-04 19:29 | 32.46379 | 122.25410 | 10041 ft | 332 kts | 159° |
| 2026-05-04 19:29 | 32.44232 | 122.26435 | 10039 ft | 333 kts | 159° |
| 2026-05-04 19:29 | 32.42086 | 122.27458 | 10045 ft | 333 kts | 159° |
| 2026-05-04 19:29 | 32.39939 | 122.28479 | 10038 ft | 333 kts | 159° |
| 2026-05-04 19:30 | 32.37789 | 122.29501 | 10039 ft | 332 kts | 159° |
| 2026-05-04 19:30 | 32.35617 | 122.30532 | 10044 ft | 349 kts | 159° |
| 2026-05-04 19:30 | 32.33257 | 122.31650 | 10042 ft | 382 kts | 159° |
| 2026-05-04 19:30 | 32.30706 | 122.32858 | 10042 ft | 404 kts | 159° |
| 2026-05-04 19:31 | 32.28087 | 122.34102 | 10042 ft | 406 kts | 159° |
| 2026-05-04 19:31 | 32.25466 | 122.35348 | 10042 ft | 406 kts | 159° |
| 2026-05-04 19:31 | 32.22846 | 122.36581 | 10042 ft | 406 kts | 159° |
| 2026-05-04 19:31 | 32.20215 | 122.37818 | 10038 ft | 406 kts | 159° |
| 2026-05-04 19:32 | 32.17595 | 122.39062 | 10047 ft | 409 kts | 159° |
| 2026-05-04 19:32 | 32.14938 | 122.40324 | 10044 ft | 412 kts | 159° |
| 2026-05-04 19:32 | 32.12302 | 122.41574 | 10011 ft | 402 kts | 159° |
| 2026-05-04 19:32 | 32.09758 | 122.42779 | 9843 ft | 385 kts | 159° |
| 2026-05-04 19:33 | 32.07327 | 122.43929 | 9645 ft | 369 kts | 159° |
| 2026-05-04 19:33 | 32.04997 | 122.45029 | 9469 ft | 353 kts | 159° |
| 2026-05-04 19:33 | 32.02765 | 122.46082 | 9311 ft | 338 kts | 159° |
| 2026-05-04 19:33 | 32.00628 | 122.47088 | 9165 ft | 324 kts | 159° |
| 2026-05-04 19:34 | 31.98606 | 122.48040 | 9034 ft | 311 kts | 159° |
| 2026-05-04 19:34 | 31.96641 | 122.48965 | 8913 ft | 298 kts | 159° |
| 2026-05-04 19:34 | 31.94758 | 122.49851 | 8790 ft | 285 kts | 159° |
| 2026-05-04 19:34 | 31.92953 | 122.50700 | 8688 ft | 273 kts | 159° |
| 2026-05-04 19:35 | 31.91229 | 122.51510 | 8581 ft | 262 kts | 159° |
| 2026-05-04 19:35 | 31.89575 | 122.52288 | 8478 ft | 250 kts | 159° |
| 2026-05-04 19:35 | 31.87979 | 122.53036 | 8256 ft | 245 kts | 160° |
| 2026-05-04 19:35 | 31.86393 | 122.53780 | 7943 ft | 245 kts | 160° |
| 2026-05-04 19:36 | 31.84812 | 122.54520 | 7639 ft | 244 kts | 160° |
| 2026-05-04 19:36 | 31.83240 | 122.55257 | 7351 ft | 243 kts | 159° |
| 2026-05-04 19:36 | 31.81668 | 122.55995 | 7059 ft | 242 kts | 160° |
| 2026-05-04 19:36 | 31.80106 | 122.56727 | 6793 ft | 241 kts | 159° |
| 2026-05-04 19:37 | 31.78549 | 122.57457 | 6515 ft | 240 kts | 159° |
| 2026-05-04 19:37 | 31.76998 | 122.58184 | 6227 ft | 239 kts | 160° |
| 2026-05-04 19:37 | 31.75450 | 122.58910 | 5862 ft | 242 kts | 160° |
| 2026-05-04 19:37 | 31.73862 | 122.59652 | 5404 ft | 249 kts | 159° |
| 2026-05-04 19:38 | 31.72239 | 122.60412 | 5109 ft | 259 kts | 160° |
| 2026-05-04 19:38 | 31.70477 | 122.61235 | 5021 ft | 277 kts | 160° |
| 2026-05-04 19:38 | 31.68697 | 122.62068 | 5006 ft | 274 kts | 160° |
| 2026-05-04 19:38 | 31.66885 | 122.62716 | 5010 ft | 272 kts | 176° |
| 2026-05-04 19:39 | 31.64964 | 122.62408 | 5011 ft | 299 kts | 202° |
| 2026-05-04 19:39 | 31.63048 | 122.61120 | 5012 ft | 337 kts | 216° |
| 2026-05-04 19:39 | 31.61093 | 122.59364 | 5004 ft | 367 kts | 219° |
| 2026-05-04 19:39 | 31.59087 | 122.57472 | 5004 ft | 372 kts | 219° |
| 2026-05-04 19:40 | 31.57050 | 122.55587 | 5005 ft | 373 kts | 219° |
| 2026-05-04 19:40 | 31.54994 | 122.53734 | 5008 ft | 373 kts | 218° |
| 2026-05-04 19:40 | 31.52921 | 122.51902 | 5003 ft | 372 kts | 218° |
| 2026-05-04 19:40 | 31.50845 | 122.50085 | 5002 ft | 373 kts | 218° |
| 2026-05-04 19:41 | 31.48802 | 122.48306 | 5003 ft | 355 kts | 218° |
| 2026-05-04 19:41 | 31.46887 | 122.46641 | 5000 ft | 332 kts | 218° |
| 2026-05-04 19:41 | 31.45112 | 122.45099 | 5000 ft | 311 kts | 218° |
| 2026-05-04 19:41 | 31.43540 | 122.43456 | 5009 ft | 305 kts | 234° |
| 2026-05-04 19:42 | 31.42624 | 122.41207 | 4999 ft | 309 kts | 258° |
| 2026-05-04 19:42 | 31.42587 | 122.38723 | 5003 ft | 305 kts | 279° |
| 2026-05-04 19:42 | 31.42975 | 122.36293 | 5288 ft | 309 kts | 278° |
| 2026-05-04 19:42 | 31.43168 | 122.33763 | 5026 ft | 311 kts | 272° |
| 2026-05-04 19:43 | 31.43193 | 122.31280 | 4999 ft | 302 kts | 270° |
| 2026-05-04 19:43 | 31.43202 | 122.28806 | 5001 ft | 306 kts | 270° |
| 2026-05-04 19:43 | 31.43211 | 122.26311 | 4997 ft | 307 kts | 270° |
| 2026-05-04 19:43 | 31.43220 | 122.23819 | 4998 ft | 305 kts | 270° |
| 2026-05-04 19:44 | 31.43286 | 122.21335 | 4999 ft | 306 kts | 274° |
| 2026-05-04 19:44 | 31.43446 | 122.18849 | 5000 ft | 306 kts | 274° |
| 2026-05-04 19:44 | 31.43609 | 122.16368 | 4974 ft | 306 kts | 274° |
| 2026-05-04 19:44 | 31.43771 | 122.13895 | 4774 ft | 303 kts | 274° |
| 2026-05-04 19:45 | 31.43939 | 122.11436 | 4310 ft | 303 kts | 274° |
| 2026-05-04 19:45 | 31.44128 | 122.08991 | 3813 ft | 302 kts | 274° |
| 2026-05-04 19:45 | 31.44332 | 122.06548 | 3307 ft | 301 kts | 274° |
| 2026-05-04 19:45 | 31.44546 | 122.04125 | 3068 ft | 301 kts | 274° |
| 2026-05-04 19:46 | 31.44767 | 122.01678 | 3000 ft | 302 kts | 274° |
| 2026-05-04 19:46 | 31.44988 | 121.99236 | 2991 ft | 301 kts | 274° |
| 2026-05-04 19:46 | 31.45173 | 121.96788 | 2989 ft | 301 kts | 268° |
| 2026-05-04 19:46 | 31.45008 | 121.94353 | 2989 ft | 300 kts | 263° |
| 2026-05-04 19:47 | 31.44807 | 121.91920 | 2987 ft | 301 kts | 263° |
| 2026-05-04 19:47 | 31.44589 | 121.89484 | 2981 ft | 300 kts | 262° |
| 2026-05-04 19:47 | 31.44364 | 121.87052 | 2980 ft | 302 kts | 262° |
| 2026-05-04 19:47 | 31.44137 | 121.84615 | 2978 ft | 301 kts | 262° |
| 2026-05-04 19:48 | 31.43908 | 121.82183 | 2979 ft | 301 kts | 262° |
| 2026-05-04 19:48 | 31.43684 | 121.79781 | 2968 ft | 287 kts | 262° |
| 2026-05-04 19:48 | 31.43481 | 121.77565 | 2974 ft | 261 kts | 262° |
| 2026-05-04 19:48 | 31.43306 | 121.75544 | 2974 ft | 238 kts | 262° |
| 2026-05-04 19:49 | 31.43151 | 121.73725 | 2976 ft | 217 kts | 262° |
| 2026-05-04 19:49 | 31.42936 | 121.72065 | 2965 ft | 197 kts | 245° |
| 2026-05-04 19:49 | 31.42154 | 121.70931 | 2969 ft | 180 kts | 207° |
| 2026-05-04 19:49 | 31.40921 | 121.70656 | 2980 ft | 184 kts | 170° |
| 2026-05-04 19:50 | 31.39752 | 121.71053 | 2968 ft | 168 kts | 162° |
| 2026-05-04 19:50 | 31.38647 | 121.71527 | 2978 ft | 169 kts | 161° |
| 2026-05-04 19:50 | 31.37609 | 121.71979 | 2970 ft | 150 kts | 160° |
| 2026-05-04 19:50 | 31.36680 | 121.72469 | 2987 ft | 150 kts | 157° |
| 2026-05-04 19:51 | 31.35737 | 121.72975 | 2972 ft | 147 kts | 157° |
| 2026-05-04 19:51 | 31.34818 | 121.73468 | 2812 ft | 145 kts | 157° |
| 2026-05-04 19:51 | 31.33901 | 121.73958 | 2563 ft | 145 kts | 157° |
| 2026-05-04 19:51 | 31.32987 | 121.74440 | 2349 ft | 144 kts | 157° |
| 2026-05-04 19:52 | 31.32076 | 121.74919 | 2106 ft | 143 kts | 158° |
| 2026-05-04 19:52 | 31.31165 | 121.75388 | 1872 ft | 142 kts | 159° |
| 2026-05-04 19:52 | 31.30245 | 121.75801 | 1639 ft | 141 kts | 161° |
| 2026-05-04 19:52 | 31.29326 | 121.76188 | 1413 ft | 139 kts | 161° |
| 2026-05-04 19:53 | 31.28420 | 121.76567 | 1182 ft | 138 kts | 161° |
| 2026-05-04 19:53 | 31.27526 | 121.76921 | 1032 ft | 133 kts | 163° |
| 2026-05-04 19:53 | 31.26626 | 121.77251 | 1082 ft | 137 kts | 164° |
| 2026-05-04 19:53 | 31.25710 | 121.77564 | 1078 ft | 136 kts | 165° |
| 2026-05-04 19:54 | 31.25106 | 121.77772 | 1079 ft | 137 kts | 164° |
| 2026-05-04 19:54 | 31.24193 | 121.78092 | 1083 ft | 137 kts | 164° |
| 2026-05-04 19:54 | 31.23293 | 121.78408 | 1081 ft | 135 kts | 164° |
| 2026-05-04 19:54 | 31.22383 | 121.78727 | 1081 ft | 137 kts | 164° |
| 2026-05-04 19:55 | 31.21467 | 121.79060 | 1043 ft | 140 kts | 163° |
| 2026-05-04 19:55 | 31.20544 | 121.79399 | 855 ft | 139 kts | 164° |
| 2026-05-04 19:55 | 31.19607 | 121.79714 | 687 ft | 140 kts | 165° |
| 2026-05-04 19:55 | 31.18684 | 121.80061 | 512 ft | 140 kts | 161° |
| 2026-05-04 19:56 | 31.17763 | 121.80446 | 369 ft | 142 kts | 162° |
| 2026-05-04 19:56 | 31.16822 | 121.80823 | 226 ft | 143 kts | 162° |
| 2026-05-04 19:56 | 31.15884 | 121.81187 | 92 ft | 142 kts | 162° |
| 2026-05-04 19:56 | 31.14950 | 121.81539 | 21 ft | 131 kts | 162° |
| 2026-05-04 19:57 | 31.14277 | 121.81793 | 25 ft | 73 kts | 162° |
| 2026-05-04 19:57 | 31.13981 | 121.81905 | 25 ft | 22 kts | 162° |
| 2026-05-04 19:57 | 31.13817 | 121.81958 | 24 ft | 27 kts | 172° |
| 2026-05-04 19:57 | 31.13612 | 121.81931 | 21 ft | 32 kts | 193° |
| 2026-05-04 19:58 | 31.13562 | 121.81847 | 22 ft | 15 kts | 305° |
| 2026-05-04 19:58 | 31.13682 | 121.81791 | 22 ft | 23 kts | 343° |
| 2026-05-04 19:58 | 31.13854 | 121.81725 | 24 ft | 29 kts | 342° |
| 2026-05-04 19:58 | 31.14005 | 121.81667 | 26 ft | 22 kts | 342° |
| 2026-05-04 19:59 | 31.14174 | 121.81603 | 22 ft | 29 kts | 342° |
| 2026-05-04 19:59 | 31.14312 | 121.81552 | 25 ft | 19 kts | 342° |
| 2026-05-04 19:59 | 31.14464 | 121.81494 | 22 ft | 15 kts | 341° |
| 2026-05-04 19:59 | 31.14516 | 121.81427 | 22 ft | 14 kts | 247° |
| 2026-05-04 20:00 | 31.14479 | 121.81293 | 25 ft | 21 kts | 255° |
| 2026-05-04 20:00 | 31.14424 | 121.81101 | 25 ft | 28 kts | 250° |
| 2026-05-04 20:00 | 31.14359 | 121.80864 | 24 ft | 33 kts | 251° |
| 2026-05-04 20:00 | 31.14282 | 121.80591 | 24 ft | 38 kts | 252° |
| 2026-05-04 20:01 | 31.14220 | 121.80358 | 24 ft | 14 kts | 252° |
| 2026-05-04 20:01 | 31.14138 | 121.80312 | 25 ft | 18 kts | 158° |
| 2026-05-04 20:01 | 31.14037 | 121.80345 | 22 ft | 12 kts | 177° |
| 2026-05-04 20:01 | 31.14011 | 121.80310 | 27 ft | 5 kts | 248° |
| 2026-05-04 20:02 | 31.14001 | 121.80274 | 22 ft | 3 kts | 254° |
| 2026-05-04 20:02 | 31.14000 | 121.80269 | 23 ft | 0 kts | 254° |
| 2026-05-04 20:05 | 31.17802 | 121.80430 | 374 ft | 0 kts | 162° |
| 2026-05-04 20:05 | 31.16775 | 121.80841 | 223 ft | 143 kts | 162° |
| 2026-05-04 20:05 | 31.19681 | 121.79690 | 693 ft | 140 kts | 165° |
| 2026-05-04 20:05 | 31.18744 | 121.80037 | 525 ft | 140 kts | 161° |
| 2026-05-04 20:06 | 31.17831 | 121.80419 | 379 ft | 142 kts | 162° |
| 2026-05-04 20:06 | 31.16894 | 121.80795 | 239 ft | 143 kts | 162° |
| 2026-05-04 20:06 | 31.15953 | 121.81161 | 99 ft | 142 kts | 162° |
| 2026-05-04 20:06 | 31.15017 | 121.81513 | 22 ft | 135 kts | 161° |
| 2026-05-04 20:07 | 31.14315 | 121.81779 | 23 ft | 13 kts | 162° |
| 2026-05-04 20:07 | 31.13992 | 121.81901 | 24 ft | 21 kts | 162° |
| 2026-05-04 20:07 | 31.13832 | 121.81956 | 26 ft | 27 kts | 170° |
| 2026-05-04 20:07 | 31.13629 | 121.81935 | 21 ft | 32 kts | 193° |
| 2026-05-04 20:08 | 31.13558 | 121.81855 | 22 ft | 14 kts | 294° |
| 2026-05-04 20:08 | 31.39635 | 121.71102 | 2970 ft | 165 kts | 162° |
| 2026-05-04 20:08 | 31.43540 | 122.17422 | 4997 ft | 305 kts | 274° |
| 2026-05-04 20:08 | 31.38748 | 121.71483 | 2980 ft | 152 kts | 161° |
| 2026-05-04 20:09 | 31.20809 | 121.79306 | 963 ft | 139 kts | 163° |
| 2026-05-04 20:09 | 31.18638 | 121.80080 | 497 ft | 140 kts | 161° |
| 2026-05-04 20:09 | 31.17712 | 121.80467 | 366 ft | 142 kts | 162° |
| 2026-05-04 20:09 | 31.16772 | 121.80842 | 221 ft | 143 kts | 162° |
| 2026-05-04 20:10 | 31.15832 | 121.81207 | 86 ft | 142 kts | 162° |
| 2026-05-04 20:10 | 31.14906 | 121.81556 | 23 ft | 128 kts | 162° |
| 2026-05-04 20:10 | 31.14252 | 121.81803 | 24 ft | 7 kts | 162° |
| 2026-05-04 20:10 | 31.13973 | 121.81908 | 24 ft | 22 kts | 162° |
| 2026-05-04 20:11 | 31.13807 | 121.81960 | 27 ft | 27 kts | 173° |